Time;durP1;ratioP1;P1;durP2;ratioP2;P2;SDS_P1;SDS_P2;PMS_P1;PMS_P2;Temp;Humidity;BMP_temperature;BMP_pressure;BME280_temperature;BME280_humidity;BME280_pressure;Samples;Min_cycle;Max_cycle;Signal;HPM_P1;HPM_P2
2022/05/23 00:01:53;;;;;;;4.90;2.70;;;16.90;36.90;;;;;;5053676;28;46438;-61
2022/05/23 00:04:19;;;;;;;5.90;2.63;;;16.80;36.70;;;;;;5060649;28;46445;-61
2022/05/23 00:06:45;;;;;;;6.83;3.07;;;16.80;36.80;;;;;;5050276;28;46400;-60
2022/05/23 00:09:11;;;;;;;5.20;2.97;;;16.80;36.90;;;;;;5057061;28;46349;-61
2022/05/23 00:11:37;;;;;;;4.60;2.70;;;16.70;38.20;;;;;;5052995;28;46346;-61
2022/05/23 00:14:03;;;;;;;5.37;3.10;;;16.70;37.10;;;;;;5052450;28;46262;-61
2022/05/23 00:16:34;;;;;;;4.73;2.87;;;16.60;37.10;;;;;;5053525;28;47490;-61
2022/05/23 00:18:59;;;;;;;8.67;3.00;;;16.60;37.50;;;;;;5051242;28;46490;-61
2022/05/23 00:21:25;;;;;;;7.70;3.00;;;16.50;37.70;;;;;;5049452;28;46428;-61
2022/05/23 00:23:51;;;;;;;10.93;2.90;;;16.50;37.90;;;;;;5058921;28;46821;-61
2022/05/23 00:26:20;;;;;;;9.77;3.40;;;16.50;38.20;;;;;;5051121;28;46315;-61
2022/05/23 00:28:46;;;;;;;5.60;2.93;;;16.40;38.20;;;;;;5055735;28;45852;-60
2022/05/23 00:31:12;;;;;;;4.87;3.40;;;16.30;38.70;;;;;;5053355;28;46426;-61
2022/05/23 00:36:32;;;;;;;5.20;3.50;;;16.00;40.60;;;;;;5051707;28;46496;-62
2022/05/23 00:38:58;;;;;;;5.87;3.37;;;15.90;41.20;;;;;;5054400;28;46353;-61
2022/05/23 00:44:37;;;;;;;7.70;3.20;;;15.70;41.70;;;;;;5046770;28;45833;-61
2022/05/23 00:47:19;;;;;;;8.00;3.57;;;15.60;41.80;;;;;;5056257;28;46346;-61
2022/05/23 00:49:45;;;;;;;4.70;3.30;;;15.50;42.50;;;;;;5049852;28;46389;-61
2022/05/23 00:52:17;;;;;;;5.50;3.50;;;15.50;42.20;;;;;;5056333;28;46437;-61
2022/05/23 00:54:47;;;;;;;6.30;3.50;;;15.50;42.30;;;;;;5053501;28;46382;-61
2022/05/23 00:57:17;;;;;;;5.93;3.60;;;15.60;42.30;;;;;;5051698;28;46338;-61
2022/05/23 00:59:44;;;;;;;7.47;3.73;;;15.60;42.60;;;;;;5051428;28;46376;-62
2022/05/23 01:02:12;;;;;;;7.87;3.13;;;15.60;42.70;;;;;;5059642;28;46369;-61
2022/05/23 01:04:38;;;;;;;8.90;3.70;;;15.60;42.50;;;;;;5050439;28;46443;-61
2022/05/23 01:07:05;;;;;;;5.73;2.97;;;15.70;42.60;;;;;;5049209;28;46331;-61
2022/05/23 01:09:31;;;;;;;7.20;3.27;;;15.70;42.40;;;;;;5051748;28;46600;-61
2022/05/23 01:11:58;;;;;;;9.83;3.80;;;15.90;42.30;;;;;;5051358;28;46432;-61
2022/05/23 01:14:24;;;;;;;5.20;2.80;;;15.90;42.20;;;;;;5051762;28;46586;-61
2022/05/23 01:16:50;;;;;;;8.87;3.13;;;16.00;42.00;;;;;;5047261;28;46381;-61
2022/05/23 01:19:15;;;;;;;6.30;2.93;;;16.10;41.80;;;;;;5051811;28;46371;-61
2022/05/23 01:21:53;;;;;;;5.97;3.17;;;16.20;41.70;;;;;;5049541;28;46481;-61
2022/05/23 01:24:38;;;;;;;6.97;3.43;;;16.30;41.70;;;;;;5050563;28;46435;-60
2022/05/23 01:27:07;;;;;;;4.73;3.10;;;16.30;41.70;;;;;;5048832;28;46600;-61
2022/05/23 01:29:33;;;;;;;6.10;3.20;;;16.40;41.20;;;;;;5044260;28;46318;-61
2022/05/23 01:31:59;;;;;;;4.30;3.17;;;16.40;41.40;;;;;;5053218;28;46423;-62
2022/05/23 01:34:26;;;;;;;6.50;3.03;;;16.40;41.30;;;;;;5056149;28;46540;-62
2022/05/23 01:36:53;;;;;;;5.80;3.10;;;16.50;41.30;;;;;;5054768;28;46499;-62
2022/05/23 01:39:18;;;;;;;5.30;3.23;;;16.50;41.30;;;;;;5053150;28;46379;-62
2022/05/23 01:41:44;;;;;;;7.37;3.63;;;16.50;41.20;;;;;;5051029;28;46583;-61
2022/05/23 01:44:10;;;;;;;5.70;2.77;;;16.50;41.40;;;;;;5047760;28;46637;-60
2022/05/23 01:46:35;;;;;;;8.23;3.77;;;16.50;41.40;;;;;;5053375;28;47203;-61
2022/05/23 01:49:01;;;;;;;8.70;3.53;;;16.50;41.40;;;;;;5046417;28;46268;-62
2022/05/23 01:51:26;;;;;;;6.17;3.43;;;16.60;41.40;;;;;;5051648;28;46763;-61
2022/05/23 01:53:52;;;;;;;8.10;2.80;;;16.60;41.10;;;;;;5053317;28;45786;-61
2022/05/23 01:56:17;;;;;;;6.10;2.80;;;16.60;41.10;;;;;;5047572;28;47130;-61
2022/05/23 02:01:27;;;;;;;6.43;3.30;;;16.60;41.10;;;;;;5047979;28;46413;-62
2022/05/23 02:03:53;;;;;;;7.20;3.40;;;16.70;41.10;;;;;;5046838;28;46482;-61
2022/05/23 02:06:19;;;;;;;6.37;3.53;;;16.70;41.20;;;;;;5046852;28;46357;-61
2022/05/23 02:08:45;;;;;;;7.00;4.10;;;16.60;41.20;;;;;;5048607;28;46691;-61
2022/05/23 02:11:10;;;;;;;7.50;3.00;;;16.70;41.60;;;;;;5046314;28;46438;-62
2022/05/23 02:13:39;;;;;;;9.13;3.47;;;16.60;41.60;;;;;;5048482;28;46421;-61
2022/05/23 02:16:05;;;;;;;7.57;3.00;;;16.60;41.80;;;;;;5045779;28;46756;-61
2022/05/23 02:18:31;;;;;;;6.00;3.17;;;16.60;42.20;;;;;;5044285;28;46359;-61
2022/05/23 02:20:57;;;;;;;7.07;3.20;;;16.60;42.30;;;;;;5047562;28;46571;-61
2022/05/23 02:23:24;;;;;;;9.20;3.47;;;16.60;42.00;;;;;;5049706;28;46216;-61
2022/05/23 02:25:50;;;;;;;7.10;3.30;;;16.70;41.90;;;;;;5048828;28;46687;-61
2022/05/23 02:28:15;;;;;;;5.17;3.30;;;16.70;41.90;;;;;;5049267;28;46402;-61
2022/05/23 02:30:41;;;;;;;6.70;3.00;;;16.70;41.90;;;;;;5047999;28;46764;-61
2022/05/23 02:33:07;;;;;;;5.87;3.43;;;16.70;42.00;;;;;;5048813;28;46580;-61
2022/05/23 02:35:33;;;;;;;5.70;3.53;;;16.60;42.20;;;;;;5050369;28;48571;-61
2022/05/23 02:37:58;;;;;;;8.30;3.80;;;16.50;42.50;;;;;;5048440;28;46408;-62
2022/05/23 02:40:24;;;;;;;5.43;3.20;;;16.50;42.80;;;;;;5050159;28;46448;-61
2022/05/23 02:42:50;;;;;;;7.47;3.80;;;16.50;42.80;;;;;;5052543;28;46506;-61
2022/05/23 02:45:16;;;;;;;8.67;3.33;;;16.40;42.90;;;;;;5049559;28;46367;-61
2022/05/23 02:47:43;;;;;;;5.67;3.20;;;16.40;43.20;;;;;;5052964;28;46271;-61
2022/05/23 02:50:11;;;;;;;6.80;3.57;;;16.20;43.60;;;;;;5048065;28;46300;-61
2022/05/23 02:52:38;;;;;;;7.50;3.33;;;16.00;43.90;;;;;;5048041;28;46583;-62
2022/05/23 02:55:04;;;;;;;7.03;3.40;;;15.90;44.40;;;;;;5051334;28;46924;-61
2022/05/23 02:57:30;;;;;;;7.10;3.30;;;15.80;44.50;;;;;;5051809;28;46435;-61
2022/05/23 02:59:56;;;;;;;5.63;3.00;;;15.90;44.60;;;;;;5049553;28;46491;-61
2022/05/23 03:05:06;;;;;;;7.80;3.13;;;16.00;43.90;;;;;;5052400;28;46738;-61
2022/05/23 03:07:32;;;;;;;9.93;2.90;;;16.00;43.90;;;;;;5048272;28;46382;-61
2022/05/23 03:09:57;;;;;;;8.00;2.87;;;16.10;44.10;;;;;;5053635;28;46318;-62
2022/05/23 03:12:23;;;;;;;6.80;3.03;;;16.20;44.10;;;;;;5050293;28;46338;-61
2022/05/23 03:14:49;;;;;;;5.73;3.20;;;16.20;44.10;;;;;;5051528;28;46136;-61
2022/05/23 03:17:14;;;;;;;12.57;3.43;;;16.30;44.00;;;;;;5048924;28;45783;-61
2022/05/23 03:19:40;;;;;;;5.30;3.17;;;16.30;43.70;;;;;;5048441;28;46293;-62
2022/05/23 03:27:36;;;;;;;4.57;2.87;;;16.40;43.30;;;;;;5051469;28;46365;-61
2022/05/23 03:30:04;;;;;;;5.47;2.93;;;16.30;43.30;;;;;;5048644;28;46484;-61
2022/05/23 03:32:30;;;;;;;5.90;3.20;;;16.30;43.50;;;;;;5053532;28;46582;-61
2022/05/23 03:34:55;;;;;;;9.40;3.07;;;16.30;43.90;;;;;;5053036;28;47905;-61
2022/05/23 03:37:21;;;;;;;7.97;3.20;;;16.20;44.10;;;;;;5054167;28;46429;-61
2022/05/23 03:39:47;;;;;;;7.30;3.07;;;16.10;44.00;;;;;;5052892;28;46337;-61
2022/05/23 03:42:13;;;;;;;7.03;3.50;;;15.90;43.90;;;;;;5063627;28;46494;-63
2022/05/23 03:44:39;;;;;;;6.40;3.90;;;15.90;44.60;;;;;;5051524;28;47118;-61
2022/05/23 03:47:05;;;;;;;4.50;2.90;;;15.90;44.60;;;;;;5050676;28;46337;-62
2022/05/23 03:49:32;;;;;;;6.60;3.17;;;15.90;44.50;;;;;;5052994;28;46317;-61
2022/05/23 03:51:58;;;;;;;5.23;3.20;;;15.90;44.20;;;;;;5048796;28;46581;-61
2022/05/23 03:54:24;;;;;;;6.83;3.20;;;16.00;44.00;;;;;;5055635;28;46945;-61
2022/05/23 03:56:50;;;;;;;8.63;3.30;;;16.10;44.00;;;;;;5046928;28;46521;-62
2022/05/23 03:59:16;;;;;;;6.97;3.30;;;16.10;44.00;;;;;;5050947;28;46434;-61
2022/05/23 04:01:41;;;;;;;6.77;3.07;;;16.20;44.10;;;;;;5057564;28;45884;-62
2022/05/23 04:04:07;;;;;;;6.63;3.23;;;16.20;44.10;;;;;;5057752;28;47007;-62
2022/05/23 04:06:35;;;;;;;4.00;2.80;;;16.20;44.10;;;;;;5052555;28;46440;-61
2022/05/23 04:09:01;;;;;;;6.70;3.17;;;16.30;44.20;;;;;;5056991;28;46326;-61
2022/05/23 04:11:26;;;;;;;8.20;3.33;;;16.30;44.20;;;;;;5053205;28;46417;-61
2022/05/23 04:13:52;;;;;;;7.50;3.10;;;16.40;44.30;;;;;;5054638;28;46404;-61
2022/05/23 04:16:18;;;;;;;10.30;3.67;;;16.50;44.40;;;;;;5054600;28;46516;-62
2022/05/23 04:18:43;;;;;;;5.43;3.63;;;16.60;44.50;;;;;;5050787;28;46656;-62
2022/05/23 04:21:09;;;;;;;7.27;3.00;;;16.70;44.60;;;;;;5056698;28;46427;-61
2022/05/23 04:23:35;;;;;;;7.40;3.17;;;16.80;44.20;;;;;;5051011;28;46944;-62
2022/05/23 04:26:08;;;;;;;10.77;3.50;;;16.90;43.80;;;;;;5053779;28;46441;-61
2022/05/23 04:28:36;;;;;;;5.73;3.10;;;17.00;43.70;;;;;;5050186;28;46500;-61
2022/05/23 04:31:02;;;;;;;5.83;3.30;;;17.10;43.60;;;;;;5049240;28;46343;-61
2022/05/23 04:36:12;;;;;;;9.13;3.40;;;17.20;43.80;;;;;;5046091;28;46403;-61
2022/05/23 04:38:38;;;;;;;8.47;3.50;;;17.20;43.70;;;;;;5052371;28;45886;-61
2022/05/23 04:41:07;;;;;;;5.40;3.20;;;17.30;43.70;;;;;;5046893;28;46632;-61
2022/05/23 04:43:33;;;;;;;6.60;3.40;;;17.40;43.40;;;;;;5048042;28;46679;-61
2022/05/23 04:45:59;;;;;;;7.73;3.03;;;17.40;43.10;;;;;;5053689;28;45862;-61
2022/05/23 04:51:08;;;;;;;6.10;3.50;;;17.40;43.20;;;;;;5053188;28;46368;-61
2022/05/23 04:53:34;;;;;;;8.90;3.20;;;17.50;43.00;;;;;;5057701;28;46343;-62
2022/05/23 04:56:00;;;;;;;8.70;3.20;;;17.50;42.80;;;;;;5053111;28;46365;-61
2022/05/23 04:58:27;;;;;;;5.60;3.40;;;17.70;42.50;;;;;;5053144;28;46400;-61
2022/05/23 05:00:53;;;;;;;11.23;4.20;;;17.70;42.20;;;;;;5057799;28;46382;-62
2022/05/23 05:03:19;;;;;;;8.90;4.23;;;17.70;42.10;;;;;;5050896;28;46568;-61
2022/05/23 05:05:45;;;;;;;5.70;3.60;;;17.80;41.90;;;;;;5054867;28;46342;-61
2022/05/23 05:08:11;;;;;;;5.50;3.37;;;18.00;41.60;;;;;;5049084;28;46403;-61
2022/05/23 05:10:37;;;;;;;5.40;3.20;;;18.10;41.20;;;;;;5049217;28;46458;-61
2022/05/23 05:13:02;;;;;;;9.63;2.73;;;18.20;41.00;;;;;;5054373;28;47254;-61
2022/05/23 05:15:28;;;;;;;7.27;3.00;;;18.40;40.70;;;;;;5046946;28;46527;-61
2022/05/23 05:17:55;;;;;;;6.67;3.13;;;18.50;40.60;;;;;;5050912;28;46386;-61
2022/05/23 05:20:21;;;;;;;8.40;3.60;;;18.60;40.60;;;;;;5051161;28;46405;-61
2022/05/23 05:22:47;;;;;;;6.07;3.60;;;18.70;40.90;;;;;;5052878;28;47082;-63
2022/05/23 05:25:14;;;;;;;6.63;3.17;;;18.90;40.80;;;;;;5049184;28;46504;-61
2022/05/23 05:27:40;;;;;;;4.97;3.20;;;18.90;40.80;;;;;;5059793;28;46263;-62
2022/05/23 05:30:08;;;;;;;7.10;3.57;;;19.00;41.00;;;;;;5047448;28;46338;-62
2022/05/23 05:32:40;;;;;;;6.87;3.40;;;19.20;41.00;;;;;;5054637;28;46610;-61
2022/05/23 05:35:12;;;;;;;7.13;2.93;;;19.20;40.80;;;;;;5049286;28;45755;-61
2022/05/23 05:37:45;;;;;;;6.80;3.27;;;19.30;40.40;;;;;;5050405;28;46418;-61
2022/05/23 05:40:14;;;;;;;4.93;2.90;;;19.40;40.20;;;;;;5048989;28;46467;-61
2022/05/23 05:42:47;;;;;;;6.47;3.50;;;19.30;40.20;;;;;;5055946;28;46543;-61
2022/05/23 05:45:23;;;;;;;8.80;3.23;;;19.40;40.50;;;;;;5049817;28;46294;-61
2022/05/23 05:47:50;;;;;;;7.50;3.43;;;19.40;40.30;;;;;;5050934;28;46221;-61
2022/05/23 05:50:25;;;;;;;5.07;2.90;;;19.50;40.30;;;;;;5053561;28;46023;-61
2022/05/23 05:52:56;;;;;;;7.70;3.40;;;19.50;40.70;;;;;;5046237;28;47044;-61
2022/05/23 05:55:21;;;;;;;7.00;3.20;;;19.40;41.00;;;;;;5050922;28;46339;-62
2022/05/23 05:57:48;;;;;;;7.70;3.20;;;19.60;40.90;;;;;;5049043;28;46465;-65
2022/05/23 06:00:14;;;;;;;6.47;3.17;;;19.70;40.70;;;;;;5054204;28;46357;-62
2022/05/23 06:02:40;;;;;;;6.20;3.50;;;19.80;40.50;;;;;;5047982;28;46241;-62
2022/05/23 06:05:05;;;;;;;7.03;3.40;;;19.80;40.30;;;;;;5054697;28;46565;-61
2022/05/23 06:13:02;;;;;;;13.30;3.87;;;19.80;40.40;;;;;;5050898;28;46657;-61
2022/05/23 06:15:28;;;;;;;11.03;3.70;;;19.60;40.70;;;;;;5047716;28;46424;-60
2022/05/23 06:17:53;;;;;;;12.73;3.57;;;19.60;40.90;;;;;;5051371;28;46452;-62
2022/05/23 06:20:20;;;;;;;7.73;3.20;;;19.50;40.80;;;;;;5046512;28;46397;-62
2022/05/23 06:22:46;;;;;;;7.37;4.17;;;19.20;41.60;;;;;;5052393;28;46871;-61
2022/05/23 06:25:16;;;;;;;8.80;3.10;;;19.00;41.70;;;;;;5048768;28;46283;-63
2022/05/23 06:27:41;;;;;;;5.43;3.40;;;18.70;42.60;;;;;;5050433;28;46523;-62
2022/05/23 06:30:09;;;;;;;6.60;3.10;;;18.50;43.50;;;;;;5048274;28;46390;-62
2022/05/23 06:32:36;;;;;;;6.60;3.40;;;18.40;44.40;;;;;;5056439;28;46648;-64
2022/05/23 06:35:01;;;;;;;7.23;3.50;;;18.10;45.00;;;;;;5051707;28;46377;-63
2022/05/23 06:37:27;;;;;;;6.77;2.90;;;18.10;46.00;;;;;;5054933;28;46745;-62
2022/05/23 06:39:53;;;;;;;14.17;3.77;;;18.10;46.00;;;;;;5048539;28;46388;-63
2022/05/23 06:42:19;;;;;;;6.77;3.63;;;18.20;45.70;;;;;;5053130;28;47307;-62
2022/05/23 06:44:44;;;;;;;8.50;4.67;;;18.30;44.90;;;;;;5051699;28;46293;-62
2022/05/23 06:47:10;;;;;;;9.23;3.70;;;18.30;45.40;;;;;;5048755;28;46427;-62
2022/05/23 06:49:36;;;;;;;11.37;4.27;;;18.20;45.50;;;;;;5052444;28;45938;-62
2022/05/23 06:52:02;;;;;;;9.63;3.03;;;18.00;45.80;;;;;;5049260;28;46390;-62
2022/05/23 06:54:27;;;;;;;14.57;3.80;;;17.90;45.70;;;;;;5051139;28;46279;-62
2022/05/23 06:56:53;;;;;;;6.73;3.43;;;17.80;45.60;;;;;;5049696;28;46285;-62
2022/05/23 06:59:20;;;;;;;6.83;3.03;;;17.80;45.60;;;;;;5046390;28;46559;-62
2022/05/23 07:01:46;;;;;;;9.00;3.40;;;17.80;45.60;;;;;;5048999;28;47029;-62
2022/05/23 07:04:12;;;;;;;5.30;3.30;;;17.80;45.60;;;;;;5042751;28;46397;-62
2022/05/23 07:12:19;;;;;;;10.93;4.33;;;17.70;45.50;;;;;;5046522;28;45841;-62
2022/05/23 07:12:25;;;;;;;7.37;4.57;;;17.70;45.60;;;;;;5047028;28;46485;-61
2022/05/23 07:14:56;;;;;;;10.57;3.80;;;17.70;45.50;;;;;;5052133;28;46464;-62
2022/05/23 07:17:22;;;;;;;12.10;5.20;;;17.90;45.70;;;;;;5055975;28;46314;-62
2022/05/23 07:19:48;;;;;;;9.40;4.47;;;18.10;45.50;;;;;;5049325;28;46657;-62
2022/05/23 07:22:15;;;;;;;4.60;3.67;;;18.00;45.80;;;;;;5049835;28;47116;-63
2022/05/23 07:24:41;;;;;;;13.03;5.20;;;18.00;45.80;;;;;;5051736;28;46393;-62
2022/05/23 07:27:07;;;;;;;11.33;5.43;;;18.10;45.90;;;;;;5052072;28;46354;-62
2022/05/23 07:29:33;;;;;;;13.20;4.67;;;18.10;45.90;;;;;;5055569;28;46453;-61
2022/05/23 07:31:58;;;;;;;8.27;4.30;;;17.90;45.70;;;;;;5048031;28;46464;-62
2022/05/23 07:34:24;;;;;;;9.53;5.13;;;17.90;45.80;;;;;;5054570;28;46318;-62
2022/05/23 07:36:50;;;;;;;8.87;4.70;;;17.80;45.70;;;;;;5046195;28;46398;-62
2022/05/23 07:39:16;;;;;;;8.23;4.27;;;17.70;46.20;;;;;;5050778;28;46306;-62
2022/05/23 07:41:44;;;;;;;11.20;4.40;;;17.70;46.30;;;;;;5050823;28;47074;-62
2022/05/23 07:44:11;;;;;;;9.17;5.00;;;17.70;46.10;;;;;;5049437;28;46617;-62
2022/05/23 07:46:40;;;;;;;15.70;4.73;;;17.90;45.70;;;;;;5048896;28;46410;-63
2022/05/23 07:49:06;;;;;;;10.47;4.57;;;18.10;45.90;;;;;;5048801;28;46362;-61
2022/05/23 07:51:32;;;;;;;9.70;4.00;;;18.30;46.10;;;;;;5053278;28;46450;-62
2022/05/23 08:02:13;;;;;;;10.43;4.17;;;18.80;44.80;;;;;;5050266;28;46795;-62
2022/05/23 08:04:38;;;;;;;6.80;3.50;;;19.00;44.70;;;;;;5048549;28;46613;-62
2022/05/23 08:07:05;;;;;;;9.30;3.17;;;19.30;44.30;;;;;;5049500;28;46366;-61
2022/05/23 08:09:30;;;;;;;9.13;3.63;;;19.30;44.00;;;;;;5045358;28;46118;-61
2022/05/23 08:11:57;;;;;;;8.03;3.70;;;19.10;43.80;;;;;;5050082;28;46985;-61
2022/05/23 08:14:23;;;;;;;5.50;3.40;;;19.10;44.00;;;;;;5047224;28;46075;-62
2022/05/23 08:16:50;;;;;;;11.03;3.80;;;19.30;43.90;;;;;;5051864;28;46295;-62
2022/05/23 08:19:16;;;;;;;7.23;4.10;;;19.40;44.90;;;;;;5050588;28;46493;-61
2022/05/23 08:21:47;;;;;;;12.90;4.53;;;19.70;43.70;;;;;;5053371;28;46510;-61
2022/05/23 08:24:14;;;;;;;10.17;4.30;;;20.00;43.20;;;;;;5051339;28;46242;-62
2022/05/23 08:26:39;;;;;;;8.93;4.30;;;20.30;42.60;;;;;;5049237;28;46906;-62
2022/05/23 08:29:06;;;;;;;6.40;3.77;;;20.60;42.00;;;;;;5056227;28;46626;-61
2022/05/23 08:31:31;;;;;;;7.37;3.47;;;20.90;42.90;;;;;;5051410;28;46644;-62
2022/05/23 08:33:57;;;;;;;6.53;3.53;;;21.30;40.90;;;;;;5054010;28;46413;-61
2022/05/23 08:36:22;;;;;;;8.97;3.70;;;21.50;40.10;;;;;;5052571;28;46472;-62
2022/05/23 08:38:48;;;;;;;10.73;4.53;;;21.60;38.80;;;;;;5049366;28;46287;-62
2022/05/23 08:41:13;;;;;;;11.30;3.90;;;21.80;38.70;;;;;;5050363;28;46512;-62
2022/05/23 08:44:02;;;;;;;10.43;3.73;;;21.90;37.80;;;;;;5050643;28;46386;-62
2022/05/23 08:46:34;;;;;;;7.03;3.83;;;22.00;37.80;;;;;;5052648;28;46412;-62
2022/05/23 08:49:15;;;;;;;8.20;4.40;;;22.00;37.10;;;;;;5046154;28;46271;-62
2022/05/23 08:51:59;;;;;;;7.47;3.50;;;22.00;36.60;;;;;;5050732;28;47112;-63
2022/05/23 08:54:31;;;;;;;8.17;3.30;;;21.90;36.80;;;;;;5047189;28;46330;-60
2022/05/23 08:56:59;;;;;;;6.87;3.37;;;22.00;36.60;;;;;;5054169;28;46488;-60
2022/05/23 08:59:37;;;;;;;8.60;3.60;;;22.10;36.00;;;;;;5049368;28;45799;-62
2022/05/23 09:02:34;;;;;;;10.47;4.43;;;22.50;36.30;;;;;;5052509;28;46499;-62
2022/05/23 09:05:08;;;;;;;10.50;3.57;;;23.00;35.20;;;;;;5056989;28;46376;-61
2022/05/23 09:07:44;;;;;;;8.13;3.57;;;23.30;34.20;;;;;;5055889;28;46270;-61
2022/05/23 09:10:22;;;;;;;7.83;3.93;;;23.60;33.50;;;;;;5052964;28;46521;-62
2022/05/23 09:12:51;;;;;;;10.27;4.03;;;23.60;33.00;;;;;;5052840;28;46728;-62
2022/05/23 09:15:16;;;;;;;8.53;3.73;;;23.60;32.50;;;;;;5049109;28;45813;-62
2022/05/23 09:17:44;;;;;;;10.53;3.60;;;23.40;32.20;;;;;;5055936;28;46351;-62
2022/05/23 09:20:13;;;;;;;9.23;4.00;;;23.30;32.40;;;;;;5045694;28;46506;-62
2022/05/23 09:22:48;;;;;;;7.70;3.90;;;23.40;32.80;;;;;;5052275;28;46939;-62
2022/05/23 09:25:22;;;;;;;12.70;3.20;;;23.50;32.60;;;;;;5052440;28;46796;-62
2022/05/23 09:28:11;;;;;;;17.10;3.60;;;23.70;32.20;;;;;;5047075;28;46363;-61
2022/05/23 09:30:39;;;;;;;8.57;3.77;;;24.10;32.90;;;;;;5052563;28;46247;-62
2022/05/23 09:33:15;;;;;;;13.37;3.60;;;24.40;31.20;;;;;;5047254;28;46436;-61
2022/05/23 09:35:51;;;;;;;6.53;3.07;;;24.70;30.50;;;;;;5051462;28;46398;-62
2022/05/23 09:38:23;;;;;;;10.50;3.00;;;24.70;29.80;;;;;;5045881;28;46308;-62
2022/05/23 09:40:50;;;;;;;21.40;4.10;;;24.80;29.90;;;;;;5054988;28;46575;-61
2022/05/23 09:49:17;;;;;;;6.13;3.17;;;24.80;29.20;;;;;;5052984;28;45854;-61
2022/05/23 09:51:57;;;;;;;11.87;3.77;;;24.70;29.60;;;;;;5054028;28;46438;-62
2022/05/23 09:54:43;;;;;;;10.80;3.20;;;24.80;29.50;;;;;;5066738;28;46449;-62
2022/05/23 09:57:26;;;;;;;5.00;3.03;;;24.70;29.70;;;;;;5054903;28;46364;-63
2022/05/23 10:00:02;;;;;;;11.23;3.70;;;24.80;29.40;;;;;;5048538;28;46490;-63
2022/05/23 10:02:40;;;;;;;6.30;3.13;;;24.80;29.20;;;;;;5054440;28;46358;-61
2022/05/23 10:05:53;;;;;;;9.43;3.50;;;24.80;28.90;;;;;;5047450;28;46445;-62
2022/05/23 10:08:38;;;;;;;8.13;3.67;;;24.70;28.80;;;;;;5041410;28;46332;-61
2022/05/23 10:11:18;;;;;;;7.63;3.43;;;25.00;28.70;;;;;;5047018;28;46436;-62
2022/05/23 10:13:54;;;;;;;7.90;3.00;;;25.30;28.50;;;;;;5049833;28;46336;-61
2022/05/23 10:16:47;;;;;;;12.17;3.50;;;25.30;28.40;;;;;;5057158;28;46553;-62
2022/05/23 10:19:31;;;;;;;8.87;3.87;;;25.30;27.70;;;;;;5055185;28;46335;-62
2022/05/23 10:22:06;;;;;;;11.53;3.67;;;25.30;27.60;;;;;;5051449;28;46434;-61
2022/05/23 10:24:34;;;;;;;10.80;3.43;;;25.20;27.60;;;;;;5052731;28;46365;-62
2022/05/23 10:27:06;;;;;;;6.63;3.60;;;25.20;28.10;;;;;;5050443;28;46326;-61
2022/05/23 10:29:55;;;;;;;10.17;4.00;;;25.20;28.30;;;;;;5052077;28;46436;-61
2022/05/23 10:32:38;;;;;;;16.43;3.80;;;25.40;27.90;;;;;;5048001;28;45829;-61
2022/05/23 10:35:09;;;;;;;10.30;3.60;;;25.50;27.80;;;;;;5051165;28;46395;-61
2022/05/23 10:37:36;;;;;;;6.70;3.60;;;25.80;27.30;;;;;;5046871;28;48316;-62
2022/05/23 10:43:19;;;;;;;10.13;3.60;;;26.20;26.60;;;;;;5051434;28;46386;-63
2022/05/23 10:45:59;;;;;;;8.87;3.60;;;26.40;26.70;;;;;;5051855;28;45892;-61
2022/05/23 10:48:43;;;;;;;13.17;3.40;;;26.10;26.50;;;;;;5045962;28;46369;-62
2022/05/23 10:51:18;;;;;;;8.70;3.87;;;25.90;26.40;;;;;;5047519;28;46520;-62
2022/05/23 10:54:14;;;;;;;9.03;3.23;;;25.80;26.40;;;;;;5052024;28;46407;-62
2022/05/23 10:56:51;;;;;;;9.03;3.30;;;26.00;26.50;;;;;;5050932;28;46542;-60
2022/05/23 10:59:38;;;;;;;8.50;3.13;;;26.20;26.00;;;;;;5046355;28;46369;-61
2022/05/23 11:02:32;;;;;;;11.83;3.47;;;26.20;25.80;;;;;;5051209;28;46579;-61
2022/05/23 11:05:22;;;;;;;8.10;3.17;;;26.30;25.90;;;;;;5047946;28;46443;-60
2022/05/23 11:08:22;;;;;;;5.17;2.57;;;26.30;25.40;;;;;;5053914;28;46491;-61
2022/05/23 11:11:07;;;;;;;6.40;3.27;;;26.30;25.40;;;;;;5049362;28;47100;-61
2022/05/23 11:14:08;;;;;;;7.60;3.10;;;26.30;25.30;;;;;;5048476;28;46414;-62
2022/05/23 11:16:33;;;;;;;9.37;3.20;;;26.50;24.90;;;;;;5046451;28;46711;-61
2022/05/23 11:19:08;;;;;;;6.43;3.20;;;26.50;24.90;;;;;;5049766;28;46551;-61
2022/05/23 11:22:04;;;;;;;13.20;3.20;;;26.50;24.70;;;;;;5047323;28;46496;-60
2022/05/23 11:24:50;;;;;;;9.27;3.03;;;26.60;24.30;;;;;;5050916;28;46428;-60
2022/05/23 11:36:08;;;;;;;9.77;3.20;;;26.60;24.10;;;;;;5050281;28;46605;-60
2022/05/23 11:38:41;;;;;;;10.07;3.50;;;26.60;23.90;;;;;;5050847;28;46428;-61
2022/05/23 11:41:28;;;;;;;13.83;4.07;;;26.60;23.90;;;;;;5052669;28;46441;-62
2022/05/23 11:43:55;;;;;;;6.63;3.00;;;26.70;23.80;;;;;;5047052;28;47972;-61
2022/05/23 11:46:26;;;;;;;8.87;3.10;;;27.10;23.40;;;;;;5054175;28;46410;-62
2022/05/23 11:49:00;;;;;;;12.13;3.20;;;27.30;22.70;;;;;;5056323;28;46521;-60
2022/05/23 11:51:40;;;;;;;9.13;3.27;;;27.60;22.40;;;;;;5054081;28;47259;-60
2022/05/23 11:54:08;;;;;;;11.07;3.33;;;27.80;22.00;;;;;;5050053;28;47487;-61
2022/05/23 11:57:05;;;;;;;8.93;3.13;;;27.60;21.50;;;;;;5059350;28;45816;-61
2022/05/23 11:59:30;;;;;;;7.40;3.70;;;27.80;21.30;;;;;;5053289;28;46493;-61
2022/05/23 12:02:08;;;;;;;9.73;3.17;;;27.80;21.40;;;;;;5048358;28;45886;-60
2022/05/23 12:04:55;;;;;;;7.30;3.20;;;27.70;21.60;;;;;;5055116;28;46365;-60
2022/05/23 12:07:46;;;;;;;7.70;3.00;;;27.50;21.80;;;;;;5055759;28;46489;-60
2022/05/23 12:10:36;;;;;;;9.83;3.10;;;27.60;22.00;;;;;;5053993;28;46371;-60
2022/05/23 12:13:11;;;;;;;9.90;3.30;;;27.60;21.90;;;;;;5051852;28;46555;-60
2022/05/23 12:15:43;;;;;;;13.20;3.90;;;27.80;21.70;;;;;;5055337;28;46423;-61
2022/05/23 12:18:28;;;;;;;15.50;3.40;;;27.90;20.80;;;;;;5052542;28;46401;-60
2022/05/23 12:21:00;;;;;;;10.97;3.50;;;28.10;20.80;;;;;;5054943;28;46443;-60
2022/05/23 12:23:42;;;;;;;12.50;3.50;;;28.50;20.10;;;;;;5053344;28;46367;-60
2022/05/23 12:26:11;;;;;;;10.17;3.10;;;28.40;20.00;;;;;;5052672;28;46934;-60
2022/05/23 12:28:55;;;;;;;8.50;3.50;;;28.40;20.10;;;;;;5049195;28;46232;-61
2022/05/23 12:31:30;;;;;;;9.73;3.23;;;28.40;20.10;;;;;;5052048;28;46404;-61
2022/05/23 12:34:02;;;;;;;10.30;4.07;;;28.50;20.30;;;;;;5051565;28;46277;-61
2022/05/23 12:36:30;;;;;;;9.50;3.50;;;28.40;20.60;;;;;;5053231;28;46275;-60
2022/05/23 12:39:33;;;;;;;15.20;3.00;;;28.10;20.90;;;;;;5051212;28;46757;-61
2022/05/23 12:42:24;;;;;;;11.10;3.33;;;27.70;21.50;;;;;;5054644;28;46486;-61
2022/05/23 12:45:30;;;;;;;8.77;3.80;;;27.50;22.30;;;;;;5052462;28;46405;-61
2022/05/23 12:48:07;;;;;;;6.23;3.33;;;27.60;22.30;;;;;;5055728;28;47285;-60
2022/05/23 12:50:54;;;;;;;8.97;3.63;;;27.40;22.10;;;;;;5052003;28;46267;-58
2022/05/23 12:53:19;;;;;;;18.57;3.40;;;27.40;22.20;;;;;;5057014;28;46726;-62
2022/05/23 12:56:24;;;;;;;8.57;3.80;;;27.30;22.30;;;;;;5051307;28;46540;-61
2022/05/23 12:59:11;;;;;;;16.80;4.13;;;27.30;22.40;;;;;;5054931;28;46365;-62
2022/05/23 13:01:42;;;;;;;24.83;3.57;;;27.30;22.70;;;;;;5049999;28;46242;-62
2022/05/23 13:04:17;;;;;;;10.57;3.93;;;27.40;22.60;;;;;;5056604;28;46438;-61
2022/05/23 13:07:00;;;;;;;11.50;3.10;;;27.50;21.70;;;;;;5052700;28;46440;-61
2022/05/23 13:09:47;;;;;;;11.73;4.10;;;27.40;21.60;;;;;;5054376;28;48255;-60
2022/05/23 13:12:36;;;;;;;6.77;3.43;;;27.40;21.20;;;;;;5049260;28;45719;-60
2022/05/23 13:15:03;;;;;;;10.83;3.60;;;27.70;20.80;;;;;;5043835;28;46315;-62
2022/05/23 13:17:39;;;;;;;12.73;3.50;;;27.90;20.90;;;;;;5047108;28;46834;-61
2022/05/23 13:23:14;;;;;;;14.70;3.40;;;27.50;21.00;;;;;;5047098;28;45802;-61
2022/05/23 13:25:40;;;;;;;18.13;3.87;;;27.50;21.30;;;;;;5055999;28;46363;-62
2022/05/23 13:28:11;;;;;;;10.90;3.87;;;27.50;21.40;;;;;;5048445;28;46366;-61
2022/05/23 13:30:56;;;;;;;11.63;4.13;;;27.70;21.80;;;;;;5049406;28;46366;-60
2022/05/23 13:33:30;;;;;;;9.70;4.03;;;27.60;21.90;;;;;;5050277;28;46363;-59
2022/05/23 13:36:04;;;;;;;17.07;4.10;;;27.20;22.30;;;;;;5055484;28;46462;-60
2022/05/23 13:38:33;;;;;;;13.00;3.90;;;27.20;22.40;;;;;;5049305;28;46362;-60
2022/05/23 13:41:01;;;;;;;12.60;3.90;;;27.10;22.50;;;;;;5049170;28;46783;-62
2022/05/23 13:43:31;;;;;;;8.83;4.20;;;27.20;22.70;;;;;;5051161;28;46309;-60
2022/05/23 13:46:00;;;;;;;11.17;4.13;;;27.20;22.80;;;;;;5047021;28;46369;-60
2022/05/23 13:48:45;;;;;;;8.27;3.73;;;27.00;23.00;;;;;;5052049;28;45868;-60
2022/05/23 13:51:18;;;;;;;8.30;3.47;;;26.80;22.70;;;;;;5048225;28;47022;-60
2022/05/23 13:53:57;;;;;;;12.80;3.70;;;26.80;23.30;;;;;;5051959;28;46258;-62
2022/05/23 13:56:25;;;;;;;14.93;4.27;;;26.70;23.00;;;;;;5045645;28;46402;-62
2022/05/23 13:58:56;;;;;;;11.20;4.23;;;26.50;22.90;;;;;;5048250;28;46439;-61
2022/05/23 14:01:44;;;;;;;24.37;4.83;;;26.30;23.20;;;;;;5050986;28;48115;-61
2022/05/23 14:04:14;;;;;;;10.47;3.67;;;26.10;23.50;;;;;;5043071;28;46327;-61